TimeCDT,TemperatureF,Dew PointF,Humidity,Sea Level PressureIn,VisibilityMPH,Wind Direction,Wind SpeedMPH,Gust SpeedMPH,PrecipitationIn,Events,Conditions,WindDirDegrees,DateUTC
12:15 AM,56.8,46.9,69,30.20,10.0,North,16.1,21.9,N/A,,Overcast,360,2012-10-27 05:15:00
12:35 AM,56.8,46.6,69,30.20,10.0,North,18.4,24.2,N/A,,Overcast,10,2012-10-27 05:35:00
12:55 AM,56.8,46.4,68,30.19,10.0,North,16.1,23.0,N/A,,Overcast,10,2012-10-27 05:55:00
1:15 AM,56.8,46.4,68,30.19,10.0,North,20.7,25.3,N/A,,Overcast,10,2012-10-27 06:15:00
1:35 AM,57.0,46.2,67,30.18,10.0,North,16.1,25.3,N/A,,Overcast,10,2012-10-27 06:35:00
1:55 AM,56.8,46.4,68,30.19,10.0,North,13.8,-,N/A,,Overcast,360,2012-10-27 06:55:00
2:15 AM,56.7,45.5,66,30.19,10.0,North,16.1,20.7,N/A,,Overcast,10,2012-10-27 07:15:00
2:35 AM,56.7,45.0,65,30.19,10.0,North,17.3,26.5,N/A,,Overcast,10,2012-10-27 07:35:00
2:55 AM,56.5,44.2,64,30.19,10.0,North,18.4,23.0,N/A,,Overcast,10,2012-10-27 07:55:00
3:15 AM,56.5,43.7,62,30.18,10.0,North,18.4,26.5,N/A,,Overcast,10,2012-10-27 08:15:00
3:35 AM,56.3,43.2,61,30.18,10.0,North,20.7,26.5,N/A,,Overcast,10,2012-10-27 08:35:00
3:55 AM,56.3,43.2,61,30.17,10.0,North,16.1,25.3,N/A,,Overcast,10,2012-10-27 08:55:00
4:15 AM,56.3,42.8,61,30.17,10.0,North,16.1,25.3,N/A,,Overcast,10,2012-10-27 09:15:00
4:35 AM,56.3,42.4,60,30.18,10.0,North,13.8,-,N/A,,Overcast,360,2012-10-27 09:35:00
4:55 AM,55.9,41.7,59,30.17,10.0,North,17.3,23.0,N/A,,Overcast,10,2012-10-27 09:55:00
5:15 AM,55.9,41.4,58,30.18,10.0,North,15.0,23.0,N/A,,Overcast,360,2012-10-27 10:15:00
5:35 AM,55.8,40.6,57,30.20,10.0,North,17.3,23.0,N/A,,Overcast,360,2012-10-27 10:35:00
5:55 AM,55.6,40.1,56,30.21,10.0,North,16.1,-,N/A,,Overcast,360,2012-10-27 10:55:00
6:15 AM,55.4,39.6,55,30.20,10.0,North,18.4,21.9,N/A,,Overcast,360,2012-10-27 11:15:00
6:35 AM,55.4,39.4,55,30.22,10.0,NNW,17.3,-,N/A,,Overcast,340,2012-10-27 11:35:00
6:55 AM,55.2,38.1,53,30.22,10.0,North,17.3,-,N/A,,Overcast,350,2012-10-27 11:55:00
7:15 AM,54.9,38.1,53,30.21,10.0,North,19.6,24.2,N/A,,Overcast,350,2012-10-27 12:15:00
7:35 AM,54.7,37.8,53,30.21,10.0,North,18.4,25.3,N/A,,Overcast,360,2012-10-27 12:35:00
7:55 AM,54.9,37.9,53,30.23,10.0,North,18.4,25.3,N/A,,Mostly Cloudy,360,2012-10-27 12:55:00
8:15 AM,54.7,38.1,54,30.25,10.0,North,16.1,27.6,N/A,,Overcast,350,2012-10-27 13:15:00
8:35 AM,54.9,38.5,54,30.26,10.0,North,15.0,-,N/A,,Overcast,360,2012-10-27 13:35:00
8:55 AM,55.0,38.5,54,30.27,10.0,North,17.3,-,N/A,,Overcast,350,2012-10-27 13:55:00
9:15 AM,55.6,38.8,53,30.28,10.0,NNW,18.4,23.0,N/A,,Overcast,340,2012-10-27 14:15:00
9:35 AM,55.2,38.3,53,30.27,10.0,NNW,17.3,20.7,N/A,,Overcast,340,2012-10-27 14:35:00
9:55 AM,55.4,38.3,53,30.27,10.0,North,13.8,-,N/A,,Overcast,360,2012-10-27 14:55:00
10:15 AM,55.8,38.3,52,30.27,10.0,North,16.1,-,N/A,,Overcast,350,2012-10-27 15:15:00
10:55 AM,56.3,38.5,51,30.27,10.0,North,16.1,21.9,N/A,,Scattered Clouds,360,2012-10-27 15:55:00
11:15 AM,56.3,38.7,52,30.26,10.0,North,17.3,21.9,N/A,,Scattered Clouds,350,2012-10-27 16:15:00
11:35 AM,56.5,39.0,52,30.25,10.0,North,17.3,21.9,N/A,,Scattered Clouds,10,2012-10-27 16:35:00
11:55 AM,57.4,39.4,51,30.23,10.0,North,19.6,26.5,N/A,,Scattered Clouds,10,2012-10-27 16:55:00
12:15 PM,58.1,39.9,51,30.23,10.0,NNE,15.0,21.9,N/A,,Clear,20,2012-10-27 17:15:00
12:35 PM,59.7,39.9,48,30.22,10.0,North,13.8,19.6,N/A,,Clear,10,2012-10-27 17:35:00
1:15 PM,60.8,39.6,46,30.22,10.0,North,9.2,-,N/A,,Clear,10,2012-10-27 18:15:00
1:55 PM,62.1,39.4,43,30.18,10.0,North,10.4,19.6,N/A,,Scattered Clouds,360,2012-10-27 18:55:00
2:15 PM,61.7,38.8,43,30.18,10.0,North,11.5,-,N/A,,Mostly Cloudy,350,2012-10-27 19:15:00
2:35 PM,63.7,38.5,39,30.15,10.0,NNW,9.2,18.4,N/A,,Mostly Cloudy,340,2012-10-27 19:35:00
2:55 PM,64.2,38.3,38,30.14,10.0,North,10.4,-,N/A,,Scattered Clouds,350,2012-10-27 19:55:00
3:15 PM,64.9,38.1,37,30.14,10.0,NW,9.2,16.1,N/A,,Mostly Cloudy,310,2012-10-27 20:15:00
3:35 PM,66.4,37.8,35,30.13,10.0,NNW,10.4,-,N/A,,Mostly Cloudy,340,2012-10-27 20:35:00
3:55 PM,66.2,36.9,34,30.12,10.0,North,13.8,18.4,N/A,,Mostly Cloudy,350,2012-10-27 20:55:00
4:15 PM,66.7,37.2,34,30.12,10.0,NW,10.4,-,N/A,,Overcast,320,2012-10-27 21:15:00
4:35 PM,66.7,38.3,35,30.11,10.0,NNW,9.2,-,N/A,,Overcast,330,2012-10-27 21:35:00
4:55 PM,66.6,37.8,35,30.11,10.0,NNW,12.7,-,N/A,,Scattered Clouds,330,2012-10-27 21:55:00
5:15 PM,66.4,37.4,34,30.10,10.0,NNW,10.4,-,N/A,,Scattered Clouds,330,2012-10-27 22:15:00
5:35 PM,65.7,38.1,36,30.11,10.0,NNW,9.2,-,N/A,,Mostly Cloudy,330,2012-10-27 22:35:00
5:55 PM,66.2,37.4,35,30.11,10.0,NW,12.7,-,N/A,,Overcast,320,2012-10-27 22:55:00
6:15 PM,65.7,37.9,36,30.11,10.0,NW,10.4,-,N/A,,Overcast,320,2012-10-27 23:15:00
6:35 PM,65.3,38.1,37,30.11,10.0,NNW,8.1,-,N/A,,Overcast,330,2012-10-27 23:35:00
6:55 PM,65.7,37.6,36,30.12,10.0,NNW,9.2,-,N/A,,Overcast,330,2012-10-27 23:55:00
7:15 PM,65.8,35.8,33,30.12,10.0,North,9.2,-,N/A,,Overcast,350,2012-10-28 00:15:00
7:35 PM,65.7,35.8,33,30.14,10.0,NNW,8.1,-,N/A,,Overcast,340,2012-10-28 00:35:00
7:55 PM,64.9,36.7,35,30.14,10.0,NNW,6.9,-,N/A,,Overcast,330,2012-10-28 00:55:00
8:15 PM,64.8,36.9,36,30.15,10.0,NNW,6.9,-,N/A,,Overcast,330,2012-10-28 01:15:00
8:35 PM,64.6,37.0,36,30.15,10.0,NW,5.8,-,N/A,,Overcast,320,2012-10-28 01:35:00
8:55 PM,64.4,36.9,36,30.15,10.0,NNW,4.6,-,N/A,,Overcast,330,2012-10-28 01:55:00
9:15 PM,64.4,37.4,37,30.16,10.0,North,5.8,-,N/A,,Overcast,350,2012-10-28 02:15:00
9:35 PM,64.4,37.0,36,30.16,10.0,North,4.6,-,N/A,,Overcast,350,2012-10-28 02:35:00
9:55 PM,64.4,37.4,37,30.17,10.0,North,4.6,-,N/A,,Overcast,360,2012-10-28 02:55:00
11:55 PM,63.7,34.7,34,30.18,10.0,NNE,9.2,-,N/A,,Overcast,30,2012-10-28 04:55:00